Time;durP1;ratioP1;P1;durP2;ratioP2;P2;SDS_P1;SDS_P2;PMS_P1;PMS_P2;Temp;Humidity;BMP_temperature;BMP_pressure;BME280_temperature;BME280_humidity;BME280_pressure;Samples;Min_cycle;Max_cycle;Signal;HPM_P1;HPM_P2
2023/09/14 00:01:12;;;;;;;4.97;3.80;;;;;;;20.09;66.93;65094.34;5049879;28;20205;-52
2023/09/14 00:03:37;;;;;;;9.50;3.63;;;;;;;19.99;66.28;65083.31;5053152;28;20202;-54
2023/09/14 00:06:03;;;;;;;6.10;3.60;;;;;;;19.87;66.60;65072.59;5053283;28;20197;-54
2023/09/14 00:08:30;;;;;;;6.72;3.72;;;;;;;19.91;67.39;65077.03;5053068;28;20198;-54
2023/09/14 00:11:01;;;;;;;11.43;4.15;;;;;;;19.75;67.99;65056.81;5052820;28;20251;-54
2023/09/14 00:13:26;;;;;;;6.70;3.80;;;;;;;19.55;69.54;65034.16;5052919;28;20218;-54
2023/09/14 00:15:52;;;;;;;6.70;3.78;;;;;;;19.68;69.02;65048.50;5052779;28;20208;-56
2023/09/14 00:18:19;;;;;;;7.47;3.97;;;;;;;19.65;67.92;65045.75;5052772;28;20217;-55
2023/09/14 00:20:45;;;;;;;7.47;3.85;;;;;;;19.63;68.79;65043.00;5052858;28;20303;-55
2023/09/14 00:23:10;;;;;;;8.50;4.63;;;;;;;19.57;69.80;65036.38;5052940;28;20205;-53
2023/09/14 00:25:36;;;;;;;7.57;3.67;;;;;;;19.57;68.89;65039.47;5035127;28;20764;-55
2023/09/14 00:28:01;;;;;;;6.38;3.70;;;;;;;19.72;66.96;65050.38;5034872;28;20205;-54
2023/09/14 00:30:27;;;;;;;8.30;4.63;;;;;;;19.73;67.11;65054.03;5052728;28;20683;-54
2023/09/14 00:32:52;;;;;;;7.20;3.50;;;;;;;19.80;65.52;65064.31;5034771;28;20209;-53
2023/09/14 00:35:19;;;;;;;6.40;3.72;;;;;;;19.70;65.95;65050.72;5052417;28;20205;-53
2023/09/14 00:37:45;;;;;;;7.78;4.10;;;;;;;19.66;66.01;65049.41;5051163;28;20213;-55
2023/09/14 00:40:12;;;;;;;6.45;3.75;;;;;;;19.50;67.34;65029.19;5052776;28;20237;-54
2023/09/14 00:42:42;;;;;;;11.77;4.35;;;;;;;19.47;67.16;65028.44;5052455;28;20292;-59
2023/09/14 00:45:10;;;;;;;7.60;3.90;;;;;;;19.46;67.69;65024.22;5052550;28;20194;-65
2023/09/14 00:47:38;;;;;;;4.35;3.58;;;;;;;19.48;68.29;65026.97;5052208;28;20245;-54
2023/09/14 00:50:05;;;;;;;6.35;3.92;;;;;;;19.67;67.64;65047.97;5052980;28;20277;-54
2023/09/14 00:52:36;;;;;;;3.83;3.20;;;;;;;19.66;67.11;65043.75;5052765;28;20691;-53
2023/09/14 00:55:05;;;;;;;7.63;3.70;;;;;;;19.58;68.66;65035.47;5034677;28;20209;-54
2023/09/14 00:57:32;;;;;;;5.78;3.60;;;;;;;19.51;70.01;65030.31;5034197;28;20245;-52
2023/09/14 00:59:57;;;;;;;5.53;3.63;;;;;;;19.41;70.56;65018.69;5052220;28;20225;-53
2023/09/14 01:02:25;;;;;;;16.27;4.00;;;;;;;19.29;71.51;65003.41;5052046;28;20660;-53
2023/09/14 01:04:51;;;;;;;6.88;3.70;;;;;;;19.21;72.51;64997.13;5052112;28;20259;-56
2023/09/14 01:07:17;;;;;;;7.35;4.47;;;;;;;18.80;73.23;64949.91;5052020;28;20216;-57
2023/09/14 01:09:43;;;;;;;7.25;3.95;;;;;;;18.77;72.42;64948.59;5052205;28;20211;-54
2023/09/14 01:12:08;;;;;;;7.82;4.55;;;;;;;18.88;71.32;64960.72;5052046;28;20209;-55
2023/09/14 01:14:49;;;;;;;8.63;4.43;;;;;;;19.22;72.29;64998.25;5050747;28;20202;-54
2023/09/14 01:17:49;;;;;;;6.40;4.13;;;;;;;19.32;70.24;65009.28;5051880;28;20217;-58
2023/09/14 01:20:26;;;;;;;6.75;3.90;;;;;;;19.27;70.23;65006.31;5050636;28;20286;-55
2023/09/14 01:23:17;;;;;;;5.03;3.88;;;;;;;19.17;70.41;64995.84;5051960;28;20209;-55
2023/09/14 01:26:19;;;;;;;7.35;4.13;;;;;;;19.15;71.51;64991.06;5051887;28;20280;-54
2023/09/14 01:28:45;;;;;;;6.07;4.28;;;;;;;19.03;71.65;64980.38;5052001;28;20236;-54
2023/09/14 01:31:11;;;;;;;7.30;4.28;;;;;;;19.04;71.51;64978.38;5051669;28;20668;-54
2023/09/14 01:33:37;;;;;;;9.95;4.40;;;;;;;19.03;71.55;64979.81;5051811;28;20288;-55
2023/09/14 01:36:15;;;;;;;6.10;4.30;;;;;;;19.14;71.04;64986.88;5051780;28;20205;-55
2023/09/14 01:38:44;;;;;;;8.40;3.97;;;;;;;19.15;70.98;64987.97;5033651;28;20232;-55
2023/09/14 01:41:11;;;;;;;5.45;3.95;;;;;;;19.26;71.06;65005.22;5051498;28;20217;-60
2023/09/14 01:43:38;;;;;;;7.85;4.10;;;;;;;19.33;69.91;65009.84;5051534;28;20284;-55
2023/09/14 01:46:04;;;;;;;10.50;4.97;;;;;;;19.34;70.34;65013.53;5051306;28;20313;-58
2023/09/14 01:48:30;;;;;;;8.70;4.22;;;;;;;19.37;71.24;65016.84;5051729;28;20174;-60
2023/09/14 01:50:55;;;;;;;8.15;4.10;;;;;;;19.34;70.61;65010.97;5051350;28;20205;-53
2023/09/14 01:53:21;;;;;;;7.93;4.60;;;;;;;19.36;70.72;65013.16;5051388;28;20586;-54
2023/09/14 01:55:47;;;;;;;7.25;4.57;;;;;;;19.40;70.65;65015.59;5051285;28;20214;-54
2023/09/14 01:58:13;;;;;;;5.63;4.40;;;;;;;19.38;71.19;65018.50;5051217;28;20215;-60
2023/09/14 02:00:38;;;;;;;6.80;4.43;;;;;;;19.35;72.22;65015.19;5051330;28;20232;-58
2023/09/14 02:03:04;;;;;;;7.35;4.10;;;;;;;19.38;71.89;65015.38;5051239;28;20219;-54
2023/09/14 02:05:30;;;;;;;13.13;5.75;;;;;;;19.30;71.53;65007.09;5051410;28;20201;-55
2023/09/14 02:07:55;;;;;;;10.38;5.68;;;;;;;19.33;71.61;65010.44;5051264;28;20308;-56
2023/09/14 02:10:22;;;;;;;5.57;4.03;;;;;;;19.29;71.14;65003.41;5051213;28;20239;-61
2023/09/14 02:12:51;;;;;;;8.38;4.80;;;;;;;19.28;71.23;65002.88;5051087;28;20205;-54
2023/09/14 02:15:17;;;;;;;10.00;6.20;;;;;;;19.28;71.76;65005.44;5051128;28;20232;-53
2023/09/14 02:17:43;;;;;;;11.82;6.22;;;;;;;19.26;71.79;65003.22;5051231;28;20205;-54
2023/09/14 02:20:09;;;;;;;9.52;5.05;;;;;;;19.21;72.01;65000.25;5051063;28;20217;-53
2023/09/14 02:22:35;;;;;;;6.45;4.45;;;;;;;19.23;71.65;64996.78;5050822;28;20209;-54
2023/09/14 02:25:02;;;;;;;10.18;5.63;;;;;;;19.22;71.81;65000.81;5050571;28;20204;-53
2023/09/14 02:27:28;;;;;;;10.20;4.90;;;;;;;19.29;71.92;65005.97;5050766;28;20248;-54
2023/09/14 02:29:54;;;;;;;11.73;4.13;;;;;;;19.26;70.91;65002.66;5050967;28;20202;-52
2023/09/14 02:32:20;;;;;;;9.80;6.65;;;;;;;19.26;72.08;65005.22;5050754;28;20210;-55
2023/09/14 02:34:46;;;;;;;11.48;5.97;;;;;;;19.24;71.31;65000.47;5050827;28;20675;-53
2023/09/14 02:37:13;;;;;;;8.20;5.07;;;;;;;19.17;72.01;64993.28;5050739;28;20213;-55
2023/09/14 02:39:39;;;;;;;8.18;5.80;;;;;;;19.19;71.50;64994.94;5032892;28;20209;-54
2023/09/14 02:42:04;;;;;;;7.18;5.20;;;;;;;19.19;71.62;64992.94;5051193;28;20324;-55
2023/09/14 02:44:29;;;;;;;6.80;4.60;;;;;;;19.24;71.25;65003.00;5050600;28;20198;-52
2023/09/14 02:46:55;;;;;;;11.68;4.50;;;;;;;19.18;71.87;64991.28;5050473;28;20300;-53
2023/09/14 02:49:21;;;;;;;10.65;5.38;;;;;;;19.24;71.48;65001.00;5032735;28;20706;-53
2023/09/14 02:51:47;;;;;;;7.22;4.60;;;;;;;19.46;71.44;65027.31;5032545;28;20271;-52
2023/09/14 02:54:13;;;;;;;7.75;4.85;;;;;;;19.40;71.87;65017.59;5050698;28;20221;-54
2023/09/14 02:56:40;;;;;;;7.28;5.25;;;;;;;19.21;72.65;64997.69;5050259;28;20236;-54
2023/09/14 02:59:05;;;;;;;7.90;5.13;;;;;;;19.15;73.40;64993.06;5050454;28;20303;-55
2023/09/14 03:01:32;;;;;;;10.98;5.30;;;;;;;19.07;73.56;64984.25;5050301;28;20665;-55
2023/09/14 03:03:59;;;;;;;12.00;5.38;;;;;;;18.92;74.34;64967.69;5050449;28;20209;-53
2023/09/14 03:06:26;;;;;;;13.18;6.32;;;;;;;18.79;75.09;64948.22;5050386;28;20659;-54
2023/09/14 03:08:51;;;;;;;8.55;4.30;;;;;;;18.72;73.76;64945.63;5050333;28;20209;-54
2023/09/14 03:11:17;;;;;;;10.00;4.60;;;;;;;18.69;74.33;64940.31;5050338;28;20263;-54
2023/09/14 03:13:42;;;;;;;5.85;4.32;;;;;;;18.55;76.34;64927.41;5050292;28;20206;-53
2023/09/14 03:16:08;;;;;;;11.13;4.47;;;;;;;18.69;74.59;64942.31;5050279;28;20205;-54
2023/09/14 03:18:33;;;;;;;8.07;4.80;;;;;;;18.62;76.59;64932.59;5050374;28;20263;-54
2023/09/14 03:20:59;;;;;;;12.10;4.72;;;;;;;18.72;74.26;64943.63;5050078;28;20208;-53
2023/09/14 03:23:24;;;;;;;8.55;4.38;;;;;;;18.67;73.25;64938.09;5050259;28;20263;-54
2023/09/14 03:25:50;;;;;;;10.45;4.28;;;;;;;18.72;74.84;64945.63;5049999;28;20715;-58
2023/09/14 03:28:17;;;;;;;11.95;4.22;;;;;;;18.84;73.30;64958.88;5049989;28;20205;-55
2023/09/14 03:30:44;;;;;;;8.43;3.83;;;;;;;18.78;73.37;64949.69;5031944;28;20236;-54
2023/09/14 03:33:10;;;;;;;10.20;4.53;;;;;;;18.71;73.80;64942.53;5049921;28;20212;-54
2023/09/14 03:35:36;;;;;;;8.98;4.25;;;;;;;18.79;71.48;64950.78;5049902;28;20212;-54
2023/09/14 03:38:02;;;;;;;7.45;4.15;;;;;;;18.67;72.15;64940.66;5052432;28;20205;-53
2023/09/14 03:40:27;;;;;;;10.60;4.43;;;;;;;18.66;72.02;64939.56;5053503;28;20205;-54
2023/09/14 03:42:53;;;;;;;6.97;4.65;;;;;;;18.61;72.70;64930.94;5053506;28;20209;-53
2023/09/14 03:45:18;;;;;;;8.10;4.80;;;;;;;18.57;73.89;64926.53;5053281;28;20247;-54
2023/09/14 03:47:44;;;;;;;9.98;4.10;;;;;;;18.67;73.04;64940.66;5053612;28;20202;-54
2023/09/14 03:50:10;;;;;;;5.90;3.90;;;;;;;18.50;73.99;64916.25;5053669;28;20695;-53
2023/09/14 03:52:36;;;;;;;8.05;4.05;;;;;;;18.54;73.28;64925.78;5053207;28;20217;-54
2023/09/14 03:55:04;;;;;;;8.57;4.40;;;;;;;18.69;73.09;64939.75;5053352;28;20208;-54
2023/09/14 03:57:29;;;;;;;8.90;4.18;;;;;;;18.67;73.25;64943.22;5053073;28;20275;-55
2023/09/14 03:59:55;;;;;;;10.85;3.92;;;;;;;18.81;72.61;64956.09;5053231;28;20217;-55
2023/09/14 04:02:21;;;;;;;9.63;4.95;;;;;;;18.84;72.81;64953.75;5053090;28;20259;-54
2023/09/14 04:04:47;;;;;;;8.02;4.22;;;;;;;18.67;73.32;64938.09;5035312;28;20633;-55
2023/09/14 04:07:12;;;;;;;6.43;3.78;;;;;;;18.59;73.92;64928.72;5053023;28;20202;-54
2023/09/14 04:09:38;;;;;;;7.72;4.47;;;;;;;18.77;73.18;64948.59;5053001;28;20330;-55
2023/09/14 04:12:04;;;;;;;12.82;4.10;;;;;;;18.73;72.82;64947.28;5035205;28;20228;-55
2023/09/14 04:14:30;;;;;;;13.10;4.72;;;;;;;18.72;72.73;64940.53;5035291;28;20193;-54
2023/09/14 04:17:00;;;;;;;8.88;4.43;;;;;;;18.79;72.72;64953.34;5053040;28;20703;-54
2023/09/14 04:19:27;;;;;;;7.32;4.60;;;;;;;18.74;72.86;64945.28;5053200;28;20300;-54
2023/09/14 04:21:52;;;;;;;8.18;4.07;;;;;;;18.54;74.12;64923.22;5052819;28;20221;-53
2023/09/14 04:24:19;;;;;;;7.15;4.30;;;;;;;18.84;73.07;64958.88;5034867;28;20213;-57
2023/09/14 04:26:45;;;;;;;10.20;4.75;;;;;;;18.62;72.29;64935.16;5052828;28;20217;-54
2023/09/14 04:29:11;;;;;;;9.52;4.43;;;;;;;18.47;73.97;64918.03;5052954;28;20277;-53
2023/09/14 04:31:37;;;;;;;6.32;4.00;;;;;;;18.61;73.98;64930.94;5052665;28;20704;-55
2023/09/14 04:34:04;;;;;;;5.57;3.63;;;;;;;18.57;73.45;64929.06;5052763;28;20197;-55
2023/09/14 04:36:31;;;;;;;7.40;4.30;;;;;;;18.42;74.23;64913.59;5052954;28;20213;-55
2023/09/14 04:38:56;;;;;;;7.82;4.57;;;;;;;18.34;75.19;64901.69;5052756;28;20738;-54
2023/09/14 04:41:22;;;;;;;8.65;4.43;;;;;;;18.33;76.36;64903.69;5052847;28;20375;-55
2023/09/14 04:43:47;;;;;;;7.63;4.35;;;;;;;18.62;75.36;64934.59;5052727;28;20223;-54
2023/09/14 04:46:13;;;;;;;9.68;4.53;;;;;;;18.50;75.95;64921.38;5034741;28;20252;-55
2023/09/14 04:48:38;;;;;;;10.40;4.90;;;;;;;18.39;77.18;64907.19;5052337;28;20232;-54
2023/09/14 04:51:04;;;;;;;6.65;4.38;;;;;;;18.54;76.00;64925.78;5052681;28;20725;-55
2023/09/14 04:53:30;;;;;;;9.55;4.05;;;;;;;18.47;76.70;64915.50;5052535;28;20636;-54
2023/09/14 04:55:56;;;;;;;8.18;4.53;;;;;;;18.37;76.88;64908.09;5052412;28;20220;-54
2023/09/14 04:58:22;;;;;;;9.57;4.50;;;;;;;18.42;76.71;64910.53;5052441;28;20208;-56
2023/09/14 05:00:50;;;;;;;14.50;4.93;;;;;;;18.28;77.37;64897.63;5052332;28;20209;-54
2023/09/14 05:03:16;;;;;;;12.13;4.70;;;;;;;18.24;77.83;64893.22;5052031;28;20206;-54
2023/09/14 05:05:42;;;;;;;8.88;4.30;;;;;;;18.22;77.73;64891.56;5034188;28;20214;-54
2023/09/14 05:08:09;;;;;;;9.80;4.43;;;;;;;18.25;77.40;64892.31;5052129;28;20229;-55
2023/09/14 05:10:36;;;;;;;10.00;4.50;;;;;;;18.06;77.63;64873.91;5052245;28;20375;-60
2023/09/14 05:13:02;;;;;;;10.27;4.70;;;;;;;18.12;78.53;64877.97;5034210;28;20216;-54
2023/09/14 05:15:27;;;;;;;8.43;4.60;;;;;;;18.24;77.72;64893.75;5052270;28;20185;-54
2023/09/14 05:17:53;;;;;;;9.55;4.10;;;;;;;18.46;76.86;64914.94;5052138;28;20209;-54
2023/09/14 05:20:18;;;;;;;9.23;4.38;;;;;;;18.53;75.75;64924.66;5051674;28;20655;-57
2023/09/14 05:22:44;;;;;;;10.25;4.45;;;;;;;18.55;75.75;64924.88;5052037;28;20245;-55
2023/09/14 05:25:09;;;;;;;10.43;4.53;;;;;;;18.65;75.70;64935.91;5050653;28;20284;-56
2023/09/14 05:27:37;;;;;;;9.85;4.18;;;;;;;18.75;73.86;64946.94;5052093;28;20220;-54
2023/09/14 05:30:04;;;;;;;10.43;4.93;;;;;;;18.84;74.42;64959.44;5051934;28;20288;-54
2023/09/14 05:32:29;;;;;;;7.93;5.05;;;;;;;18.85;73.52;64954.84;5051828;28;20271;-54
2023/09/14 05:34:54;;;;;;;7.25;4.57;;;;;;;18.95;73.09;64968.44;5051703;28;20736;-54
2023/09/14 05:37:20;;;;;;;8.70;4.90;;;;;;;19.02;71.92;64976.19;5034029;28;20217;-56
2023/09/14 05:39:46;;;;;;;9.45;4.68;;;;;;;18.99;72.39;64972.84;5051731;28;20720;-56
2023/09/14 05:42:11;;;;;;;10.45;4.47;;;;;;;18.96;72.18;64972.13;5051679;28;20296;-55
2023/09/14 05:44:37;;;;;;;8.63;4.75;;;;;;;19.04;71.82;64978.38;5051576;28;20197;-55
2023/09/14 05:47:02;;;;;;;11.18;5.43;;;;;;;19.03;72.19;64975.28;5052026;28;20577;-54
2023/09/14 05:49:28;;;;;;;10.85;5.30;;;;;;;19.10;73.05;64985.00;5051722;28;20586;-54
2023/09/14 05:51:54;;;;;;;11.45;5.15;;;;;;;19.19;73.15;64997.50;5051555;28;20218;-54
2023/09/14 05:54:19;;;;;;;11.70;5.05;;;;;;;19.44;71.85;65022.56;5050264;28;20206;-55
2023/09/14 05:56:44;;;;;;;10.82;5.55;;;;;;;19.57;70.91;65036.38;5051204;28;20217;-53
2023/09/14 05:59:10;;;;;;;12.75;5.95;;;;;;;19.53;71.03;65034.50;5050874;28;20263;-53
2023/09/14 06:01:36;;;;;;;9.63;5.00;;;;;;;19.78;69.80;65062.66;5051004;28;20683;-53
2023/09/14 06:04:02;;;;;;;9.93;5.13;;;;;;;19.84;68.41;65069.28;5051496;28;20205;-54
2023/09/14 06:06:28;;;;;;;9.93;5.50;;;;;;;19.85;69.16;65067.84;5051284;28;20308;-53
2023/09/14 06:08:53;;;;;;;14.02;5.15;;;;;;;19.93;69.41;65078.69;5051391;28;20268;-53
2023/09/14 06:11:19;;;;;;;15.43;5.20;;;;;;;20.08;67.97;65093.25;5051183;28;20692;-54
2023/09/14 06:13:45;;;;;;;9.82;4.82;;;;;;;20.26;66.28;65112.06;5051216;28;20203;-53
2023/09/14 06:16:11;;;;;;;13.82;7.47;;;;;;;20.31;67.02;65115.00;5050991;28;20217;-53
2023/09/14 06:18:36;;;;;;;12.15;5.57;;;;;;;20.31;67.30;65120.13;5051009;28;20251;-53
2023/09/14 06:21:02;;;;;;;10.68;5.90;;;;;;;20.26;67.85;65112.59;5051143;28;20367;-53
2023/09/14 06:23:28;;;;;;;13.85;5.30;;;;;;;20.41;66.58;65131.19;5051043;28;20197;-53
2023/09/14 06:25:53;;;;;;;7.32;4.70;;;;;;;20.47;65.55;65135.25;5050882;28;20205;-53
2023/09/14 06:28:18;;;;;;;10.00;4.88;;;;;;;20.47;66.12;65137.81;5033158;28;20197;-54
2023/09/14 06:30:44;;;;;;;10.20;4.90;;;;;;;20.38;66.45;65125.31;5051006;28;20658;-53
2023/09/14 06:33:10;;;;;;;8.20;5.18;;;;;;;20.47;66.47;65133.25;5050876;28;20209;-53
2023/09/14 06:35:35;;;;;;;9.18;5.05;;;;;;;20.62;65.88;65152.38;5050798;28;20209;-53
2023/09/14 06:38:04;;;;;;;8.20;4.70;;;;;;;20.53;64.88;65139.31;5050732;28;20690;-56
2023/09/14 06:40:29;;;;;;;8.90;4.35;;;;;;;20.43;65.52;65128.25;5050633;28;20683;-54
2023/09/14 06:42:55;;;;;;;14.20;5.47;;;;;;;20.48;66.15;65136.91;5050695;28;20213;-53
2023/09/14 06:45:21;;;;;;;10.90;4.72;;;;;;;20.60;65.10;65150.19;5050643;28;20197;-53
2023/09/14 06:47:46;;;;;;;11.30;5.00;;;;;;;20.69;63.64;65159.56;5049303;28;20193;-52
2023/09/14 06:50:12;;;;;;;7.90;4.32;;;;;;;20.63;63.84;65152.94;5033103;28;20204;-52
2023/09/14 06:52:38;;;;;;;7.55;5.07;;;;;;;20.63;64.54;65150.38;5050325;28;20295;-56
2023/09/14 06:55:04;;;;;;;11.23;5.53;;;;;;;20.79;64.11;65168.59;5032763;28;20266;-53
2023/09/14 06:57:29;;;;;;;8.32;4.90;;;;;;;20.93;63.21;65186.09;5050426;28;20296;-53
2023/09/14 06:59:54;;;;;;;10.57;4.80;;;;;;;20.98;63.63;65191.06;5050337;28;20371;-54
2023/09/14 07:02:20;;;;;;;12.60;5.57;;;;;;;21.07;64.09;65199.03;5050492;28;20217;-53
2023/09/14 07:04:46;;;;;;;12.32;7.00;;;;;;;21.25;64.44;65220.94;5050451;28;20696;-55
2023/09/14 07:07:11;;;;;;;12.55;6.28;;;;;;;21.36;64.33;65233.66;5050289;28;20216;-53
2023/09/14 07:09:37;;;;;;;10.98;6.35;;;;;;;21.58;64.75;65258.00;5050531;28;20568;-52
2023/09/14 07:12:03;;;;;;;22.58;8.43;;;;;;;21.79;63.95;65280.13;5050184;28;20679;-53
2023/09/14 07:14:29;;;;;;;17.88;6.72;;;;;;;22.01;63.29;65304.50;5032417;28;20206;-52
2023/09/14 07:16:54;;;;;;;20.30;8.77;;;;;;;21.87;64.31;65289.00;5050487;28;20209;-53
2023/09/14 07:19:26;;;;;;;15.95;6.35;;;;;;;22.20;63.04;65325.53;5050131;28;20694;-56
2023/09/14 07:21:51;;;;;;;16.75;6.30;;;;;;;22.42;61.96;65347.84;5050377;28;20209;-52
2023/09/14 07:24:23;;;;;;;17.75;6.53;;;;;;;22.24;60.41;65330.50;5050360;28;20216;-53
2023/09/14 07:26:49;;;;;;;16.30;7.78;;;;;;;22.03;61.32;65307.25;5050181;28;20227;-52
2023/09/14 07:29:15;;;;;;;15.40;8.02;;;;;;;22.14;61.60;65316.31;5050067;28;20280;-52
2023/09/14 07:31:41;;;;;;;14.98;6.00;;;;;;;22.36;61.16;65340.66;5031887;28;20213;-53
2023/09/14 07:34:07;;;;;;;21.75;9.13;;;;;;;22.28;61.03;65334.38;5032414;28;20243;-53
2023/09/14 07:36:33;;;;;;;23.38;13.80;;;;;;;22.08;62.49;65309.69;5050023;28;20209;-53
2023/09/14 07:38:59;;;;;;;18.70;9.73;;;;;;;22.19;63.10;65319.28;5049989;28;20213;-55
2023/09/14 07:41:26;;;;;;;14.43;6.20;;;;;;;22.66;61.42;65373.91;5059864;22;20336;-53
2023/09/14 07:43:52;;;;;;;17.23;8.02;;;;;;;22.49;60.27;65355.06;5069803;28;20335;-54
2023/09/14 07:46:18;;;;;;;15.95;8.93;;;;;;;22.52;59.57;65358.38;5066321;28;20719;-52
2023/09/14 07:48:43;;;;;;;18.20;7.97;;;;;;;22.59;59.33;65366.13;5050093;28;20229;-53
2023/09/14 07:51:09;;;;;;;14.38;7.18;;;;;;;22.72;58.59;65380.53;5049937;28;20678;-54
2023/09/14 07:53:34;;;;;;;23.73;8.90;;;;;;;22.93;57.61;65403.22;5050086;28;20205;-54
2023/09/14 07:56:00;;;;;;;17.48;7.50;;;;;;;23.04;57.94;65415.44;5049900;28;20551;-54
2023/09/14 07:58:25;;;;;;;24.23;8.00;;;;;;;23.27;57.10;65444.03;5077025;22;20266;-53
2023/09/14 08:00:51;;;;;;;14.43;6.85;;;;;;;23.19;55.64;65432.06;5069718;28;20590;-54
2023/09/14 08:03:17;;;;;;;17.23;6.25;;;;;;;23.20;55.61;65433.16;5050019;28;20540;-53
2023/09/14 08:05:42;;;;;;;16.33;6.95;;;;;;;23.43;53.89;65460.69;5049938;28;20200;-53
2023/09/14 08:08:09;;;;;;;12.98;6.35;;;;;;;23.34;54.30;65449.25;5049720;28;20206;-52
2023/09/14 08:10:35;;;;;;;17.98;7.15;;;;;;;23.58;53.54;65475.28;5049707;28;20205;-58
2023/09/14 08:13:01;;;;;;;11.82;5.53;;;;;;;23.91;51.53;65511.28;5049801;28;20255;-52
2023/09/14 08:15:33;;;;;;;15.60;6.38;;;;;;;23.83;52.18;65502.44;5031709;28;20220;-53
2023/09/14 08:17:58;;;;;;;17.50;6.30;;;;;;;24.01;51.60;65522.38;5031831;28;20888;-50
2023/09/14 08:20:24;;;;;;;20.00;9.00;;;;;;;23.96;51.13;65516.81;5049494;28;20675;-51
2023/09/14 08:22:50;;;;;;;19.73;6.75;;;;;;;24.06;51.07;65528.50;5049082;28;20221;-50
2023/09/14 08:25:16;;;;;;;11.90;5.85;;;;;;;24.04;51.00;65526.28;5051718;28;20202;-52
2023/09/14 08:27:43;;;;;;;9.60;5.72;;;;;;;23.94;50.34;65512.59;5052941;28;20239;-50
2023/09/14 08:30:10;;;;;;;17.30;5.68;;;;;;;24.14;50.41;65539.38;5052730;28;20715;-52
2023/09/14 08:32:35;;;;;;;8.52;5.70;;;;;;;24.60;52.30;65585.25;5073898;22;20229;-50
2023/09/14 08:35:20;;;;;;;15.43;5.90;;;;;;;25.17;50.79;65647.41;5073095;28;20203;-51
2023/09/14 08:37:45;;;;;;;21.90;10.30;;;;;;;25.14;48.48;65647.22;5057170;28;20205;-51
2023/09/14 08:40:14;;;;;;;16.52;9.45;;;;;;;25.19;47.72;65652.75;5052711;28;20300;-51
2023/09/14 08:42:47;;;;;;;11.65;5.18;;;;;;;25.76;46.92;65715.47;5034622;28;20279;-52
2023/09/14 08:45:19;;;;;;;9.70;5.97;;;;;;;26.32;45.83;65777.69;5052942;28;20204;-52
2023/09/14 08:47:47;;;;;;;13.40;6.72;;;;;;;26.55;44.17;65803.25;5034753;28;20213;-51
2023/09/14 08:50:15;;;;;;;25.80;11.52;;;;;;;26.23;44.64;65767.72;5034802;28;20205;-51
2023/09/14 08:52:43;;;;;;;13.63;6.10;;;;;;;26.83;44.00;65833.28;5034524;28;20311;-50
2023/09/14 08:55:10;;;;;;;13.18;6.68;;;;;;;27.29;43.11;65882.38;5052542;28;20282;-50
2023/09/14 08:57:38;;;;;;;10.05;6.00;;;;;;;27.61;42.79;65920.03;5052551;28;20241;-51
2023/09/14 09:00:14;;;;;;;29.75;12.57;;;;;;;27.63;43.40;65916.50;5035014;28;20241;-51
2023/09/14 09:02:42;;;;;;;13.77;6.05;;;;;;;27.90;41.90;65954.84;5052507;28;20213;-51
2023/09/14 09:05:07;;;;;;;11.18;5.97;;;;;;;28.14;41.01;65975.84;5052299;28;20201;-50
2023/09/14 09:07:33;;;;;;;18.95;6.53;;;;;;;28.21;39.38;65986.78;5052846;28;20254;-52
2023/09/14 09:10:00;;;;;;;16.70;7.47;;;;;;;27.53;41.35;65911.13;5052491;28;20240;-51
2023/09/14 09:12:25;;;;;;;11.13;5.57;;;;;;;28.08;40.68;65972.31;5052792;28;20225;-51
2023/09/14 09:14:53;;;;;;;56.15;14.02;;;;;;;27.91;42.27;65950.78;5052448;28;20254;-51
2023/09/14 09:17:19;;;;;;;59.95;14.80;;;;;;;27.58;41.06;65916.69;5052130;28;20214;-51
2023/09/14 09:19:51;;;;;;;56.28;20.75;;;;;;;27.18;41.50;65869.59;5051119;28;20328;-54
2023/09/14 09:22:17;;;;;;;86.28;20.33;;;;;;;27.37;41.02;65893.34;5052000;28;20243;-52
2023/09/14 09:24:43;;;;;;;15.65;6.03;;;;;;;27.77;40.65;65935.22;5034450;28;20245;-58
2023/09/14 09:27:27;;;;;;;32.08;9.15;;;;;;;28.27;40.30;65990.31;5034146;28;20225;-51
2023/09/14 09:30:00;;;;;;;16.38;5.82;;;;;;;28.62;38.96;66028.72;5051997;28;20280;-51
2023/09/14 09:32:25;;;;;;;17.15;8.35;;;;;;;28.77;39.47;66045.41;5052002;28;20222;-51
2023/09/14 09:34:51;;;;;;;11.75;5.50;;;;;;;29.10;39.59;66081.59;5051056;28;20220;-51
2023/09/14 09:37:17;;;;;;;9.95;5.35;;;;;;;29.01;39.08;66075.28;5051910;28;20217;-51
2023/09/14 09:39:44;;;;;;;15.10;6.30;;;;;;;28.80;37.91;66051.91;5052189;28;20213;-51
2023/09/14 09:42:13;;;;;;;14.10;6.00;;;;;;;28.57;37.79;66023.16;5052236;28;20232;-50
2023/09/14 09:44:39;;;;;;;13.85;6.43;;;;;;;28.90;39.27;66062.47;5051929;28;20198;-51
2023/09/14 09:47:05;;;;;;;15.98;6.43;;;;;;;28.13;39.77;65977.88;5051997;28;20224;-53
2023/09/14 09:49:33;;;;;;;15.68;6.45;;;;;;;28.20;39.16;65985.66;5034011;28;20205;-52
2023/09/14 09:52:00;;;;;;;12.05;5.22;;;;;;;28.59;38.66;66025.38;5052053;28;20221;-51
2023/09/14 09:54:27;;;;;;;11.68;4.78;;;;;;;29.16;37.32;66090.88;5051619;28;20201;-53
2023/09/14 09:56:53;;;;;;;15.70;5.47;;;;;;;29.57;37.74;66133.97;5051467;28;20765;-50
2023/09/14 09:59:19;;;;;;;21.63;7.13;;;;;;;29.50;36.48;66129.31;5034024;28;20340;-50
2023/09/14 10:01:47;;;;;;;20.25;6.95;;;;;;;29.24;37.88;66097.75;5051650;28;20205;-58
2023/09/14 10:04:15;;;;;;;17.75;6.22;;;;;;;29.46;36.94;66124.84;5051911;28;20213;-50
2023/09/14 10:06:41;;;;;;;21.17;6.38;;;;;;;29.85;36.30;66165.19;5033622;28;20715;-51
2023/09/14 10:09:16;;;;;;;12.07;5.32;;;;;;;30.50;35.55;66237.09;5051483;28;20205;-51
2023/09/14 10:11:43;;;;;;;13.63;5.68;;;;;;;30.72;35.05;66264.22;5051343;28;20225;-51
2023/09/14 10:14:13;;;;;;;16.85;7.50;;;;;;;30.44;36.29;66233.00;5051488;28;20217;-52
2023/09/14 10:16:43;;;;;;;15.85;9.02;;;;;;;30.23;36.12;66206.94;5051750;28;20244;-51
2023/09/14 10:19:09;;;;;;;10.70;4.93;;;;;;;31.06;33.12;66299.53;5051275;28;20246;-50
2023/09/14 10:21:41;;;;;;;15.48;5.75;;;;;;;30.88;33.48;66276.88;5051251;28;20251;-52
2023/09/14 10:24:07;;;;;;;14.70;5.32;;;;;;;31.72;33.97;66369.44;5051480;28;20166;-51
2023/09/14 10:26:39;;;;;;;10.85;5.28;;;;;;;32.32;33.25;66438.50;5033367;28;20217;-51
2023/09/14 10:29:06;;;;;;;13.77;5.88;;;;;;;32.66;31.35;66473.88;5051239;28;20651;-51
2023/09/14 10:31:36;;;;;;;47.72;10.30;;;;;;;31.36;32.60;66333.00;5051135;28;20282;-51
2023/09/14 10:34:03;;;;;;;17.88;6.18;;;;;;;31.05;32.02;66297.88;5051158;28;20258;-51
2023/09/14 10:36:32;;;;;;;13.75;5.22;;;;;;;32.09;32.11;66413.38;5050937;28;20217;-52
2023/09/14 10:39:04;;;;;;;9.60;5.18;;;;;;;32.61;31.03;66471.44;5050948;28;20221;-52
2023/09/14 10:41:30;;;;;;;25.67;7.40;;;;;;;32.93;30.96;66504.56;5033019;28;20218;-51
2023/09/14 10:43:56;;;;;;;18.48;5.72;;;;;;;32.52;29.94;66458.81;5051099;28;20238;-52
2023/09/14 10:46:35;;;;;;;10.82;4.90;;;;;;;32.13;29.83;66420.44;5050851;28;20217;-51
2023/09/14 10:49:02;;;;;;;18.27;9.80;;;;;;;32.40;30.19;66442.22;5050901;28;20354;-50
2023/09/14 10:51:28;;;;;;;8.30;4.63;;;;;;;32.34;29.22;66438.13;5032960;28;20544;-53
2023/09/14 10:53:55;;;;;;;19.65;8.75;;;;;;;31.94;30.20;66397.19;5050848;28;20212;-53
2023/09/14 10:56:31;;;;;;;11.90;6.63;;;;;;;31.10;31.70;66306.59;5050826;28;20248;-56
2023/09/14 10:58:59;;;;;;;7.43;4.88;;;;;;;31.26;29.24;66319.25;5050764;28;20240;-53
2023/09/14 11:01:27;;;;;;;13.82;6.00;;;;;;;30.70;31.43;66259.38;5050570;28;20304;-56
2023/09/14 11:04:22;;;;;;;7.97;5.03;;;;;;;31.35;29.00;66331.88;5050741;28;20236;-53
2023/09/14 11:06:49;;;;;;;9.15;4.60;;;;;;;31.84;28.19;66385.44;5032666;28;20213;-52
2023/09/14 11:09:17;;;;;;;5.00;3.67;;;;;;;32.35;29.40;66439.22;5050580;28;20209;-52
2023/09/14 11:11:45;;;;;;;11.60;4.85;;;;;;;32.53;28.49;66462.53;5050277;28;20225;-53
2023/09/14 11:14:13;;;;;;;11.23;4.85;;;;;;;32.31;27.63;66437.38;5050489;28;20213;-54
2023/09/14 11:16:45;;;;;;;7.70;4.68;;;;;;;32.84;27.53;66497.16;5050333;28;20217;-55
2023/09/14 11:19:10;;;;;;;7.10;4.22;;;;;;;33.16;28.38;66534.97;5050416;28;20375;-52
2023/09/14 11:21:36;;;;;;;8.25;4.72;;;;;;;33.34;27.05;66554.50;5050642;28;20738;-52
2023/09/14 11:24:02;;;;;;;7.70;4.53;;;;;;;33.67;27.74;66586.75;5050248;28;20266;-53
2023/09/14 11:26:32;;;;;;;17.58;6.15;;;;;;;33.21;27.35;66537.38;5050327;28;20209;-54
2023/09/14 11:28:58;;;;;;;13.98;5.75;;;;;;;32.56;27.72;66462.72;5032690;28;20205;-53